Larkinsburg, Illinois
Current Conditions -  °F | °C
As of 4:55 AM on Friday 19 Dec 2014 (Local Time) from K1H2 Reporting Station
Haze Haze  
Wind Chill: 25°   Ceiling: Unl
Heat Index: 25°   Visibility: 3mi
Dew Point: 22°   Wind: 0mph
Humidity: 89%   Direction: NA
Pressure: 30.32"   Gusts: NA
Location:  38.891°N, 88.6694°W
Report Text: K1H2 191055Z AUTO 00000KT 3SM BR CLR M04/M05 A3032 RMK AO2 T10391054
Loading
Personal Weather Stations






























Interactive Weather Map New forecast layout! Learn more

10-Day Weather Forecast

Advertisements
Track Severe Weather on mobile